sensor_id;sensor_type;location;lat;lon;timestamp;temperature;humidity
66128;DHT22;52925;52.436;-1.952;2023-08-12T07:42:09;19.30;87.90
66128;DHT22;52925;52.436;-1.952;2023-08-12T07:43:31;19.30;87.80
66128;DHT22;52925;52.436;-1.952;2023-08-12T07:44:50;19.30;88.00
66128;DHT22;52925;52.436;-1.952;2023-08-12T07:46:12;19.30;88.40
66128;DHT22;52925;52.436;-1.952;2023-08-12T07:53:59;19.00;89.70
66128;DHT22;52925;52.436;-1.952;2023-08-12T13:20:42;20.40;88.10
66128;DHT22;52925;52.436;-1.952;2023-08-12T13:22:30;20.40;88.20
66128;DHT22;52925;52.436;-1.952;2023-08-12T13:23:55;20.40;88.20
66128;DHT22;52925;52.436;-1.952;2023-08-12T13:25:33;20.40;88.20
66128;DHT22;52925;52.436;-1.952;2023-08-12T13:31:18;20.50;88.00
66128;DHT22;52925;52.436;-1.952;2023-08-12T13:32:49;20.50;87.80
66128;DHT22;52925;52.436;-1.952;2023-08-12T13:34:34;20.50;87.70
66128;DHT22;52925;52.436;-1.952;2023-08-12T13:36:03;20.50;87.90
66128;DHT22;52925;52.436;-1.952;2023-08-12T13:39:45;20.50;87.80
66128;DHT22;52925;52.436;-1.952;2023-08-12T13:41:31;20.60;87.60
66128;DHT22;52925;52.436;-1.952;2023-08-12T13:43:33;20.60;87.80
66128;DHT22;52925;52.436;-1.952;2023-08-12T13:44:57;20.50;87.60
66128;DHT22;52925;52.436;-1.952;2023-08-12T13:46:22;20.50;87.60
66128;DHT22;52925;52.436;-1.952;2023-08-12T13:47:44;20.50;87.50
66128;DHT22;52925;52.436;-1.952;2023-08-12T13:49:05;20.50;87.30
66128;DHT22;52925;52.436;-1.952;2023-08-12T13:50:32;20.60;87.40
66128;DHT22;52925;52.436;-1.952;2023-08-12T13:51:57;20.50;87.20
66128;DHT22;52925;52.436;-1.952;2023-08-12T13:53:47;20.60;87.30
66128;DHT22;52925;52.436;-1.952;2023-08-12T13:55:13;20.60;87.10
66128;DHT22;52925;52.436;-1.952;2023-08-12T13:56:42;20.60;86.90
66128;DHT22;52925;52.436;-1.952;2023-08-12T13:58:04;20.60;87.10
66128;DHT22;52925;52.436;-1.952;2023-08-12T13:59:35;20.60;86.90
66128;DHT22;52925;52.436;-1.952;2023-08-12T14:00:58;20.60;86.80
66128;DHT22;52925;52.436;-1.952;2023-08-12T14:02:36;20.60;87.10
66128;DHT22;52925;52.436;-1.952;2023-08-12T14:03:59;20.70;87.10
66128;DHT22;52925;52.436;-1.952;2023-08-12T14:05:21;20.70;87.00
66128;DHT22;52925;52.436;-1.952;2023-08-12T14:06:45;20.70;86.70
66128;DHT22;52925;52.436;-1.952;2023-08-12T14:08:25;20.70;86.80
66128;DHT22;52925;52.436;-1.952;2023-08-12T14:10:01;20.60;86.90
66128;DHT22;52925;52.436;-1.952;2023-08-12T14:11:47;20.70;86.90
66128;DHT22;52925;52.436;-1.952;2023-08-12T14:13:10;20.70;88.00
66128;DHT22;52925;52.436;-1.952;2023-08-12T14:14:31;20.70;87.10
66128;DHT22;52925;52.436;-1.952;2023-08-12T14:16:22;20.70;86.90
66128;DHT22;52925;52.436;-1.952;2023-08-12T14:17:49;20.70;86.60
66128;DHT22;52925;52.436;-1.952;2023-08-12T14:19:24;20.70;86.60
66128;DHT22;52925;52.436;-1.952;2023-08-12T14:20:48;20.70;86.30
66128;DHT22;52925;52.436;-1.952;2023-08-12T14:22:30;20.70;86.10
66128;DHT22;52925;52.436;-1.952;2023-08-12T14:24:20;20.60;86.00
66128;DHT22;52925;52.436;-1.952;2023-08-12T14:25:49;20.70;86.30
66128;DHT22;52925;52.436;-1.952;2023-08-12T14:29:48;20.70;85.90
66128;DHT22;52925;52.436;-1.952;2023-08-12T14:31:11;20.70;86.20
66128;DHT22;52925;52.436;-1.952;2023-08-12T18:05:56;20.90;85.70
66128;DHT22;52925;52.436;-1.952;2023-08-12T20:10:27;20.10;90.10
66128;DHT22;52925;52.436;-1.952;2023-08-12T20:11:51;20.10;90.30
66128;DHT22;52925;52.436;-1.952;2023-08-12T20:13:13;20.20;90.10
66128;DHT22;52925;52.436;-1.952;2023-08-12T20:14:37;20.20;90.10
66128;DHT22;52925;52.436;-1.952;2023-08-12T20:15:59;20.20;90.00
66128;DHT22;52925;52.436;-1.952;2023-08-12T20:17:28;20.20;90.00
66128;DHT22;52925;52.436;-1.952;2023-08-12T20:18:59;20.20;89.90
66128;DHT22;52925;52.436;-1.952;2023-08-12T20:20:47;20.20;89.90
66128;DHT22;52925;52.436;-1.952;2023-08-12T20:22:19;20.20;89.90
66128;DHT22;52925;52.436;-1.952;2023-08-12T20:23:55;20.20;89.90
66128;DHT22;52925;52.436;-1.952;2023-08-12T20:27:52;20.20;90.00
66128;DHT22;52925;52.436;-1.952;2023-08-12T20:29:13;20.10;90.10
66128;DHT22;52925;52.436;-1.952;2023-08-12T20:30:45;20.00;90.20
66128;DHT22;52925;52.436;-1.952;2023-08-12T20:32:10;19.80;90.30
66128;DHT22;52925;52.436;-1.952;2023-08-12T20:33:48;19.90;90.50
66128;DHT22;52925;52.436;-1.952;2023-08-12T20:35:09;19.90;90.40
66128;DHT22;52925;52.436;-1.952;2023-08-12T20:36:30;19.90;90.70
66128;DHT22;52925;52.436;-1.952;2023-08-12T20:37:55;19.90;90.30
66128;DHT22;52925;52.436;-1.952;2023-08-12T20:39:17;20.00;90.30
66128;DHT22;52925;52.436;-1.952;2023-08-12T20:40:56;19.90;90.30
66128;DHT22;52925;52.436;-1.952;2023-08-12T20:42:50;19.90;90.40
66128;DHT22;52925;52.436;-1.952;2023-08-12T20:44:39;19.80;90.40
66128;DHT22;52925;52.436;-1.952;2023-08-12T20:46:27;19.80;90.30
66128;DHT22;52925;52.436;-1.952;2023-08-12T20:47:51;19.90;90.40
66128;DHT22;52925;52.436;-1.952;2023-08-12T20:49:11;19.90;90.20
66128;DHT22;52925;52.436;-1.952;2023-08-12T20:50:33;20.00;90.20
66128;DHT22;52925;52.436;-1.952;2023-08-12T20:54:22;19.90;90.20
66128;DHT22;52925;52.436;-1.952;2023-08-12T20:55:44;19.90;90.10
66128;DHT22;52925;52.436;-1.952;2023-08-12T20:59:37;19.80;90.30
66128;DHT22;52925;52.436;-1.952;2023-08-12T21:01:41;19.80;90.30
66128;DHT22;52925;52.436;-1.952;2023-08-12T21:03:20;19.80;90.20
66128;DHT22;52925;52.436;-1.952;2023-08-12T21:05:26;19.80;90.20
66128;DHT22;52925;52.436;-1.952;2023-08-12T21:07:01;19.90;90.10
66128;DHT22;52925;52.436;-1.952;2023-08-12T21:08:35;19.80;90.00
66128;DHT22;52925;52.436;-1.952;2023-08-12T21:10:05;19.90;90.00
66128;DHT22;52925;52.436;-1.952;2023-08-12T21:11:47;20.00;89.80
66128;DHT22;52925;52.436;-1.952;2023-08-12T21:13:11;19.90;89.90
66128;DHT22;52925;52.436;-1.952;2023-08-12T21:14:33;19.90;89.90
66128;DHT22;52925;52.436;-1.952;2023-08-12T21:15:57;19.80;89.90
66128;DHT22;52925;52.436;-1.952;2023-08-12T21:17:22;19.80;90.00
66128;DHT22;52925;52.436;-1.952;2023-08-12T21:18:43;19.80;90.00
66128;DHT22;52925;52.436;-1.952;2023-08-12T21:20:05;19.80;90.10
66128;DHT22;52925;52.436;-1.952;2023-08-12T21:21:27;19.80;90.20
66128;DHT22;52925;52.436;-1.952;2023-08-12T21:22:47;19.80;90.20
66128;DHT22;52925;52.436;-1.952;2023-08-12T21:24:09;19.70;90.20
66128;DHT22;52925;52.436;-1.952;2023-08-12T21:25:30;19.80;90.20
66128;DHT22;52925;52.436;-1.952;2023-08-12T21:26:52;19.70;90.30
66128;DHT22;52925;52.436;-1.952;2023-08-12T21:28:13;19.70;90.30
66128;DHT22;52925;52.436;-1.952;2023-08-12T21:29:35;19.80;90.30
66128;DHT22;52925;52.436;-1.952;2023-08-12T21:30:57;19.70;90.30
66128;DHT22;52925;52.436;-1.952;2023-08-12T21:32:19;19.70;90.40
66128;DHT22;52925;52.436;-1.952;2023-08-12T21:33:39;19.60;90.40
66128;DHT22;52925;52.436;-1.952;2023-08-12T21:35:07;19.60;90.60
66128;DHT22;52925;52.436;-1.952;2023-08-12T21:36:28;19.60;90.70
66128;DHT22;52925;52.436;-1.952;2023-08-12T21:37:50;19.50;90.70
66128;DHT22;52925;52.436;-1.952;2023-08-12T21:39:11;19.60;90.70
66128;DHT22;52925;52.436;-1.952;2023-08-12T21:40:34;19.60;90.50
66128;DHT22;52925;52.436;-1.952;2023-08-12T21:41:55;19.60;90.50
66128;DHT22;52925;52.436;-1.952;2023-08-12T21:43:18;19.60;90.50
66128;DHT22;52925;52.436;-1.952;2023-08-12T21:44:42;19.60;90.60
66128;DHT22;52925;52.436;-1.952;2023-08-12T21:46:05;19.60;90.70
66128;DHT22;52925;52.436;-1.952;2023-08-12T21:47:26;19.60;90.60
66128;DHT22;52925;52.436;-1.952;2023-08-12T21:48:49;19.70;90.50
66128;DHT22;52925;52.436;-1.952;2023-08-12T21:50:10;19.70;90.50
66128;DHT22;52925;52.436;-1.952;2023-08-12T21:51:33;19.60;90.40
66128;DHT22;52925;52.436;-1.952;2023-08-12T21:52:53;19.60;90.50
66128;DHT22;52925;52.436;-1.952;2023-08-12T21:54:16;19.60;90.60
66128;DHT22;52925;52.436;-1.952;2023-08-12T21:55:38;19.50;90.70
66128;DHT22;52925;52.436;-1.952;2023-08-12T21:57:01;19.50;90.70
66128;DHT22;52925;52.436;-1.952;2023-08-12T21:58:21;19.50;90.70
66128;DHT22;52925;52.436;-1.952;2023-08-12T21:59:44;19.50;90.70
66128;DHT22;52925;52.436;-1.952;2023-08-12T22:01:07;19.60;90.70
66128;DHT22;52925;52.436;-1.952;2023-08-12T22:02:29;19.60;90.60
66128;DHT22;52925;52.436;-1.952;2023-08-12T22:03:52;19.60;90.70
66128;DHT22;52925;52.436;-1.952;2023-08-12T22:05:16;19.60;90.60
66128;DHT22;52925;52.436;-1.952;2023-08-12T22:06:37;19.60;90.60
66128;DHT22;52925;52.436;-1.952;2023-08-12T22:08:01;19.60;90.50
66128;DHT22;52925;52.436;-1.952;2023-08-12T22:09:23;19.60;90.50
66128;DHT22;52925;52.436;-1.952;2023-08-12T22:10:49;19.50;90.60
66128;DHT22;52925;52.436;-1.952;2023-08-12T22:12:10;19.50;90.70
66128;DHT22;52925;52.436;-1.952;2023-08-12T22:13:32;19.50;90.70
66128;DHT22;52925;52.436;-1.952;2023-08-12T22:14:54;19.40;90.70
66128;DHT22;52925;52.436;-1.952;2023-08-12T22:16:17;19.40;90.70
66128;DHT22;52925;52.436;-1.952;2023-08-12T22:17:38;19.40;90.70
66128;DHT22;52925;52.436;-1.952;2023-08-12T22:19:03;19.40;90.70
66128;DHT22;52925;52.436;-1.952;2023-08-12T22:20:24;19.40;90.70
66128;DHT22;52925;52.436;-1.952;2023-08-12T22:21:47;19.40;90.80
66128;DHT22;52925;52.436;-1.952;2023-08-12T22:23:08;19.40;90.80
66128;DHT22;52925;52.436;-1.952;2023-08-12T22:24:31;19.40;90.80
66128;DHT22;52925;52.436;-1.952;2023-08-12T22:25:52;19.40;90.90
66128;DHT22;52925;52.436;-1.952;2023-08-12T22:27:13;19.40;90.80
66128;DHT22;52925;52.436;-1.952;2023-08-12T22:28:34;19.40;90.70
66128;DHT22;52925;52.436;-1.952;2023-08-12T22:29:55;19.40;90.80
66128;DHT22;52925;52.436;-1.952;2023-08-12T22:31:17;19.40;90.80
66128;DHT22;52925;52.436;-1.952;2023-08-12T22:32:39;19.40;90.50
66128;DHT22;52925;52.436;-1.952;2023-08-12T22:33:59;19.30;90.80
66128;DHT22;52925;52.436;-1.952;2023-08-12T22:35:24;19.20;90.90
66128;DHT22;52925;52.436;-1.952;2023-08-12T22:36:45;19.30;90.80
66128;DHT22;52925;52.436;-1.952;2023-08-12T22:38:07;19.20;90.90
66128;DHT22;52925;52.436;-1.952;2023-08-12T22:39:28;19.30;90.90
66128;DHT22;52925;52.436;-1.952;2023-08-12T22:40:49;19.30;90.90
66128;DHT22;52925;52.436;-1.952;2023-08-12T22:42:09;19.30;90.80
66128;DHT22;52925;52.436;-1.952;2023-08-12T22:43:31;19.40;90.70
66128;DHT22;52925;52.436;-1.952;2023-08-12T22:44:52;19.40;90.70
66128;DHT22;52925;52.436;-1.952;2023-08-12T22:46:14;19.40;90.70
66128;DHT22;52925;52.436;-1.952;2023-08-12T22:47:36;19.40;90.60
66128;DHT22;52925;52.436;-1.952;2023-08-12T22:48:58;19.40;90.50
66128;DHT22;52925;52.436;-1.952;2023-08-12T22:50:19;19.30;90.60
66128;DHT22;52925;52.436;-1.952;2023-08-12T22:51:40;19.30;90.50
66128;DHT22;52925;52.436;-1.952;2023-08-12T22:53:01;19.30;90.60
66128;DHT22;52925;52.436;-1.952;2023-08-12T22:54:23;19.30;90.60
66128;DHT22;52925;52.436;-1.952;2023-08-12T22:55:45;19.20;90.60
66128;DHT22;52925;52.436;-1.952;2023-08-12T22:57:07;19.20;90.70
66128;DHT22;52925;52.436;-1.952;2023-08-12T22:58:27;19.20;90.80
66128;DHT22;52925;52.436;-1.952;2023-08-12T22:59:49;19.30;90.80
66128;DHT22;52925;52.436;-1.952;2023-08-12T23:01:10;19.30;90.60
66128;DHT22;52925;52.436;-1.952;2023-08-12T23:02:32;19.30;90.70
66128;DHT22;52925;52.436;-1.952;2023-08-12T23:03:54;19.40;90.50
66128;DHT22;52925;52.436;-1.952;2023-08-12T23:05:16;19.40;90.50
66128;DHT22;52925;52.436;-1.952;2023-08-12T23:06:36;19.40;90.50
66128;DHT22;52925;52.436;-1.952;2023-08-12T23:07:58;19.40;90.40
66128;DHT22;52925;52.436;-1.952;2023-08-12T23:09:20;19.40;90.40
66128;DHT22;52925;52.436;-1.952;2023-08-12T23:10:41;19.40;90.30
66128;DHT22;52925;52.436;-1.952;2023-08-12T23:12:02;19.40;90.40
66128;DHT22;52925;52.436;-1.952;2023-08-12T23:13:24;19.40;90.40
66128;DHT22;52925;52.436;-1.952;2023-08-12T23:14:45;19.40;90.40
66128;DHT22;52925;52.436;-1.952;2023-08-12T23:16:06;19.40;90.40
66128;DHT22;52925;52.436;-1.952;2023-08-12T23:17:26;19.40;90.30
66128;DHT22;52925;52.436;-1.952;2023-08-12T23:18:48;19.40;90.40
66128;DHT22;52925;52.436;-1.952;2023-08-12T23:20:11;19.40;90.40
66128;DHT22;52925;52.436;-1.952;2023-08-12T23:21:34;19.30;90.40
66128;DHT22;52925;52.436;-1.952;2023-08-12T23:22:54;19.30;90.40
66128;DHT22;52925;52.436;-1.952;2023-08-12T23:24:15;19.40;90.40
66128;DHT22;52925;52.436;-1.952;2023-08-12T23:25:36;19.30;90.40
66128;DHT22;52925;52.436;-1.952;2023-08-12T23:26:57;19.30;90.40
66128;DHT22;52925;52.436;-1.952;2023-08-12T23:28:18;19.30;90.40
66128;DHT22;52925;52.436;-1.952;2023-08-12T23:29:40;19.40;90.40
66128;DHT22;52925;52.436;-1.952;2023-08-12T23:31:00;19.30;90.40
66128;DHT22;52925;52.436;-1.952;2023-08-12T23:32:22;19.30;90.30
66128;DHT22;52925;52.436;-1.952;2023-08-12T23:33:42;19.30;90.40
66128;DHT22;52925;52.436;-1.952;2023-08-12T23:35:04;19.30;90.40
66128;DHT22;52925;52.436;-1.952;2023-08-12T23:36:26;19.30;90.30
66128;DHT22;52925;52.436;-1.952;2023-08-12T23:37:48;19.40;90.30
66128;DHT22;52925;52.436;-1.952;2023-08-12T23:39:08;19.40;90.20
66128;DHT22;52925;52.436;-1.952;2023-08-12T23:40:31;19.40;90.20
66128;DHT22;52925;52.436;-1.952;2023-08-12T23:41:51;19.40;90.20
66128;DHT22;52925;52.436;-1.952;2023-08-12T23:43:13;19.30;90.20
66128;DHT22;52925;52.436;-1.952;2023-08-12T23:44:33;19.30;90.30
66128;DHT22;52925;52.436;-1.952;2023-08-12T23:45:58;19.30;90.30
66128;DHT22;52925;52.436;-1.952;2023-08-12T23:47:19;19.40;90.30
66128;DHT22;52925;52.436;-1.952;2023-08-12T23:48:41;19.30;90.30
66128;DHT22;52925;52.436;-1.952;2023-08-12T23:50:01;19.40;90.30
66128;DHT22;52925;52.436;-1.952;2023-08-12T23:51:23;19.40;90.20
66128;DHT22;52925;52.436;-1.952;2023-08-12T23:52:45;19.40;90.20
66128;DHT22;52925;52.436;-1.952;2023-08-12T23:54:07;19.30;90.20
66128;DHT22;52925;52.436;-1.952;2023-08-12T23:55:28;19.40;90.30
66128;DHT22;52925;52.436;-1.952;2023-08-12T23:56:49;19.40;90.30
66128;DHT22;52925;52.436;-1.952;2023-08-12T23:58:10;19.30;90.20
66128;DHT22;52925;52.436;-1.952;2023-08-12T23:59:31;19.30;90.20
